createdAt,value
2022-12-23T00:00:18.951Z,0.9
2022-12-23T00:01:28.757Z,0.8
2022-12-23T00:02:38.511Z,1.3
2022-12-23T00:03:48.128Z,1.1
2022-12-23T00:04:55.742Z,1.1
2022-12-23T00:06:05.422Z,1
2022-12-23T00:07:14.120Z,0.8
2022-12-23T00:08:23.760Z,0.7
2022-12-23T00:09:33.441Z,0.8
2022-12-23T00:10:41.098Z,0.6
2022-12-23T00:11:49.797Z,0.6
2022-12-23T00:13:00.458Z,0.6
2022-12-23T00:14:13.259Z,0.5
2022-12-23T00:15:19.859Z,0.6
2022-12-23T00:16:28.581Z,0.8
2022-12-23T00:17:38.203Z,0.6
2022-12-23T00:18:47.867Z,0.8
2022-12-23T00:19:55.528Z,0.7
2022-12-23T00:21:08.769Z,0.7
2022-12-23T00:22:14.875Z,0.7
2022-12-23T00:23:23.560Z,0.9
2022-12-23T00:24:33.200Z,1
2022-12-23T00:25:42.090Z,1
2022-12-23T00:26:51.655Z,0.7
2022-12-23T00:28:01.528Z,0.8
2022-12-23T00:29:11.022Z,0.8
2022-12-23T00:30:20.731Z,1
2022-12-23T00:31:29.477Z,1
2022-12-23T00:32:38.121Z,1
2022-12-23T00:33:47.772Z,1.5
2022-12-23T00:34:56.425Z,1.2
2022-12-23T00:36:06.165Z,1
2022-12-23T00:37:15.778Z,1.3
2022-12-23T00:38:24.458Z,0.9
2022-12-23T00:39:34.167Z,1.2
2022-12-23T00:40:42.837Z,1
2022-12-23T00:41:51.475Z,1.1
2022-12-23T00:43:01.174Z,1.2
2022-12-23T00:44:09.874Z,1.1
2022-12-23T00:45:19.537Z,1.2
2022-12-23T00:46:29.295Z,1.2
2022-12-23T00:47:38.872Z,1
2022-12-23T00:48:48.541Z,1
2022-12-23T00:49:57.221Z,1.1
2022-12-23T00:51:05.887Z,1.2
2022-12-23T00:52:15.828Z,1.2
2022-12-23T00:53:25.284Z,1.3
2022-12-23T00:54:34.946Z,1.3
2022-12-23T00:55:43.659Z,1.1
2022-12-23T00:56:51.318Z,1.3
2022-12-23T00:58:01.007Z,1.2
2022-12-23T00:59:10.711Z,1.3
2022-12-23T01:00:20.384Z,0.9
2022-12-23T01:01:30.323Z,1
2022-12-23T01:02:39.935Z,1.1
2022-12-23T01:03:49.465Z,0.7
2022-12-23T01:04:58.125Z,1.1
2022-12-23T01:06:06.806Z,0.8
2022-12-23T01:07:16.528Z,0.9
2022-12-23T01:08:26.186Z,1
2022-12-23T01:09:34.849Z,1.1
2022-12-23T01:10:44.496Z,1.1
2022-12-23T01:11:53.185Z,0.8
2022-12-23T01:13:02.894Z,0.9
2022-12-23T01:14:11.579Z,1.3
2022-12-23T01:15:19.235Z,1.4
2022-12-23T01:16:28.952Z,1.3
2022-12-23T01:17:36.571Z,0.6
2022-12-23T01:18:45.269Z,0.7
2022-12-23T01:19:54.907Z,0.4
2022-12-23T01:21:02.559Z,0.5
2022-12-23T01:22:12.218Z,0.4
2022-12-23T01:23:20.889Z,0.5
2022-12-23T01:24:30.601Z,0.5
2022-12-23T01:25:40.293Z,0.4
2022-12-23T01:26:48.967Z,0.4
2022-12-23T01:27:58.645Z,0.4
2022-12-23T01:29:08.325Z,0.3
2022-12-23T01:30:15.999Z,0.3
2022-12-23T01:31:25.753Z,0.4
2022-12-23T01:32:35.345Z,0.5
2022-12-23T01:33:43.008Z,0.5
2022-12-23T01:34:52.699Z,0.5
2022-12-23T01:36:01.395Z,0.6
2022-12-23T01:37:11.089Z,0.7
2022-12-23T01:38:20.760Z,0.7
2022-12-23T01:39:30.423Z,0.7
2022-12-23T01:40:40.087Z,0.8
2022-12-23T01:41:48.778Z,1
2022-12-23T01:42:58.446Z,0.8
2022-12-23T01:44:08.152Z,0.7
2022-12-23T01:45:16.809Z,0.9
2022-12-23T01:46:25.523Z,0.7
2022-12-23T01:47:35.144Z,0.9
2022-12-23T01:48:43.790Z,0.8
2022-12-23T01:49:53.468Z,0.8
2022-12-23T01:51:03.146Z,0.9
2022-12-23T01:52:12.806Z,0.7
2022-12-23T01:53:23.520Z,0.8
2022-12-23T01:54:33.165Z,0.8
2022-12-23T01:55:41.821Z,0.7
2022-12-23T01:56:51.563Z,0.7
2022-12-23T01:58:00.218Z,0.9
2022-12-23T01:59:09.906Z,1
2022-12-23T02:00:18.602Z,0.9
2022-12-23T02:01:27.389Z,0.8
2022-12-23T02:02:36.953Z,0.8
2022-12-23T02:03:46.738Z,0.6
2022-12-23T02:04:56.297Z,0.7
2022-12-23T02:06:06.024Z,0.6
2022-12-23T02:07:14.713Z,0.6
2022-12-23T02:08:24.387Z,0.5
2022-12-23T02:09:33.050Z,0.4
2022-12-23T02:10:41.774Z,0.5
2022-12-23T02:11:50.458Z,0.5
2022-12-23T02:13:00.129Z,0.6
2022-12-23T02:14:09.836Z,0.7
2022-12-23T02:15:18.505Z,0.5
2022-12-23T02:16:28.321Z,0.7
2022-12-23T02:17:37.888Z,0.8
2022-12-23T02:18:46.628Z,0.7
2022-12-23T02:19:56.378Z,0.8
2022-12-23T02:21:05.067Z,0.8
2022-12-23T02:22:12.737Z,0.7
2022-12-23T02:23:23.425Z,1
2022-12-23T02:24:31.082Z,0.8
2022-12-23T02:25:40.744Z,0.7
2022-12-23T02:26:50.415Z,0.8
2022-12-23T02:27:59.166Z,0.7
2022-12-23T02:29:08.832Z,1.1
2022-12-23T02:30:18.506Z,1.1
2022-12-23T02:31:27.230Z,0.7
2022-12-23T02:32:36.874Z,0.7
2022-12-23T02:33:44.521Z,0.8
2022-12-23T02:34:53.224Z,0.8
2022-12-23T02:36:02.902Z,0.9
2022-12-23T02:37:11.557Z,0.8
2022-12-23T02:38:21.224Z,0.8
2022-12-23T02:39:30.924Z,0.9
2022-12-23T02:40:38.576Z,1
2022-12-23T02:41:48.245Z,0.9
2022-12-23T02:42:56.909Z,0.6
2022-12-23T02:44:06.586Z,0.9
2022-12-23T02:45:16.342Z,0.9
2022-12-23T02:46:25.061Z,0.6
2022-12-23T02:47:34.703Z,0.9
2022-12-23T02:48:44.381Z,0.8
2022-12-23T02:49:52.025Z,0.6
2022-12-23T02:51:01.701Z,0.4
2022-12-23T02:52:09.370Z,0.5
2022-12-23T02:53:19.045Z,0.4
2022-12-23T02:54:28.857Z,0.4
2022-12-23T02:55:37.418Z,0.5
2022-12-23T02:56:47.100Z,0.4
2022-12-23T02:57:55.790Z,0.5
2022-12-23T02:59:03.462Z,0.6
2022-12-23T03:00:13.152Z,0.7
2022-12-23T03:01:20.853Z,0.5
2022-12-23T03:02:30.711Z,0.6
2022-12-23T03:03:40.310Z,0.7
2022-12-23T03:04:47.901Z,0.7
2022-12-23T03:05:57.530Z,0.6
2022-12-23T03:07:08.196Z,0.5
2022-12-23T03:08:16.876Z,0.6
2022-12-23T03:09:25.600Z,0.7
2022-12-23T03:10:35.303Z,0.7
2022-12-23T03:11:43.988Z,1
2022-12-23T03:12:53.656Z,0.9
2022-12-23T03:14:03.340Z,1.1
2022-12-23T03:15:13.012Z,1.3
2022-12-23T03:16:22.698Z,1.4
2022-12-23T03:17:31.342Z,1.2
2022-12-23T03:18:41.065Z,1.4
2022-12-23T03:19:50.750Z,1
2022-12-23T03:20:59.454Z,1.2
2022-12-23T03:22:09.078Z,1
2022-12-23T03:23:18.780Z,1.2
2022-12-23T03:24:28.468Z,1.2
2022-12-23T03:25:37.120Z,1.4
2022-12-23T03:26:44.794Z,1.6
2022-12-23T03:27:54.441Z,1
2022-12-23T03:29:03.152Z,1.1
2022-12-23T03:30:12.858Z,0.7
2022-12-23T03:31:22.730Z,0.6
2022-12-23T03:32:31.257Z,0.7
2022-12-23T03:33:40.956Z,0.9
2022-12-23T03:34:50.602Z,1.1
2022-12-23T03:36:00.316Z,0.9
2022-12-23T03:37:09.953Z,0.8
2022-12-23T03:38:18.596Z,0.8
2022-12-23T03:39:28.283Z,0.7
2022-12-23T03:40:37.955Z,0.5
2022-12-23T03:41:45.618Z,0.6
2022-12-23T03:42:55.341Z,0.5
2022-12-23T03:44:05.043Z,0.5
2022-12-23T03:45:41.686Z,0.7
2022-12-23T03:46:25.362Z,0.9
2022-12-23T03:47:34.027Z,1.1
2022-12-23T03:48:42.744Z,1
2022-12-23T03:49:52.427Z,1.1
2022-12-23T03:51:00.148Z,1.1
2022-12-23T03:52:09.805Z,1
2022-12-23T03:53:18.447Z,0.8
2022-12-23T03:54:26.148Z,0.5
2022-12-23T03:55:35.814Z,0.4
2022-12-23T03:56:44.485Z,0.4
2022-12-23T03:57:53.151Z,0.5
2022-12-23T03:59:02.799Z,0.6
2022-12-23T04:00:11.519Z,0.7
2022-12-23T04:01:21.211Z,0.7
2022-12-23T04:02:29.923Z,0.8
2022-12-23T04:03:38.587Z,1
2022-12-23T04:04:48.181Z,0.6
2022-12-23T04:05:56.886Z,0.6
2022-12-23T04:07:05.552Z,0.6
2022-12-23T04:08:15.265Z,0.6
2022-12-23T04:09:24.853Z,0.6
2022-12-23T04:10:33.542Z,0.5
2022-12-23T04:11:43.292Z,0.6
2022-12-23T04:12:50.911Z,0.6
2022-12-23T04:14:00.589Z,0.7
2022-12-23T04:15:13.006Z,0.7
2022-12-23T04:16:19.895Z,0.8
2022-12-23T04:17:29.552Z,0.6
2022-12-23T04:18:38.214Z,0.5
2022-12-23T04:19:46.860Z,0.6
2022-12-23T04:20:55.520Z,0.7
2022-12-23T04:22:04.213Z,0.6
2022-12-23T04:23:13.955Z,0.6
2022-12-23T04:24:23.678Z,0.6
2022-12-23T04:25:32.347Z,0.7
2022-12-23T04:26:42.019Z,0.7
2022-12-23T04:27:50.700Z,0.6
2022-12-23T04:28:59.394Z,0.6
2022-12-23T04:30:09.102Z,0.7
2022-12-23T04:31:17.842Z,0.6
2022-12-23T04:32:27.486Z,0.8
2022-12-23T04:33:37.130Z,0.7
2022-12-23T04:34:45.885Z,0.6
2022-12-23T04:35:55.512Z,0.6
2022-12-23T04:37:03.214Z,0.6
2022-12-23T04:38:12.043Z,0.7
2022-12-23T04:39:21.708Z,0.6
2022-12-23T04:40:30.416Z,0.7
2022-12-23T04:41:40.068Z,0.6
2022-12-23T04:42:49.775Z,0.7
2022-12-23T04:43:57.423Z,0.6
2022-12-23T04:45:06.081Z,0.7
2022-12-23T04:46:14.931Z,0.6
2022-12-23T04:47:23.591Z,0.7
2022-12-23T04:48:32.232Z,0.7
2022-12-23T04:49:41.924Z,0.7
2022-12-23T04:50:51.619Z,0.8
2022-12-23T04:51:59.302Z,0.7
2022-12-23T04:53:08.978Z,0.7
2022-12-23T04:54:18.651Z,0.6
2022-12-23T04:55:28.312Z,0.9
2022-12-23T04:56:38.007Z,0.7
2022-12-23T04:57:46.663Z,0.8
2022-12-23T04:58:55.342Z,0.7
2022-12-23T05:00:05.002Z,0.6
2022-12-23T05:01:13.730Z,0.5
2022-12-23T05:02:23.442Z,0.5
2022-12-23T05:03:32.058Z,0.4
2022-12-23T05:04:41.771Z,0.3
2022-12-23T05:05:51.372Z,0.3
2022-12-23T05:07:00.062Z,0.2
2022-12-23T05:08:09.704Z,0.2
2022-12-23T05:09:19.415Z,0.3
2022-12-23T05:10:27.097Z,0.2
2022-12-23T05:11:41.810Z,0.2
2022-12-23T05:12:45.456Z,0.3
2022-12-23T05:13:54.154Z,0.3
2022-12-23T05:15:03.848Z,0.3
2022-12-23T05:16:12.177Z,0.2
2022-12-23T05:17:21.876Z,0.3
2022-12-23T05:18:31.545Z,0.3
2022-12-23T05:19:41.238Z,0.3
2022-12-23T05:20:50.974Z,0.3
2022-12-23T05:21:59.632Z,0.4
2022-12-23T05:23:08.381Z,0.2
2022-12-23T05:24:18.149Z,0.3
2022-12-23T05:25:26.854Z,0.3
2022-12-23T05:26:36.589Z,0.3
2022-12-23T05:27:46.317Z,0.3
2022-12-23T05:28:55.059Z,0.4
2022-12-23T05:30:04.730Z,0.3
2022-12-23T05:31:14.437Z,0.3
2022-12-23T05:32:22.121Z,0.3
2022-12-23T05:33:31.817Z,0.2
2022-12-23T05:34:40.483Z,0.3
2022-12-23T05:35:50.178Z,0.2
2022-12-23T05:36:58.852Z,0.4
2022-12-23T05:38:06.604Z,0.3
2022-12-23T05:39:16.293Z,0.3
2022-12-23T05:40:26.899Z,0.3
2022-12-23T05:41:34.640Z,0.5
2022-12-23T05:42:44.321Z,0.4
2022-12-23T05:43:54.129Z,0.4
2022-12-23T05:45:03.868Z,0.4
2022-12-23T05:46:13.733Z,0.3
2022-12-23T05:47:21.237Z,0.5
2022-12-23T05:48:29.956Z,0.3
2022-12-23T05:49:38.656Z,0.6
2022-12-23T05:50:47.355Z,0.4
2022-12-23T05:51:57.078Z,0.4
2022-12-23T05:53:06.791Z,0.4
2022-12-23T05:54:16.474Z,0.3
2022-12-23T05:55:26.169Z,0.4
2022-12-23T05:56:34.881Z,0.3
2022-12-23T05:57:44.558Z,0.4
2022-12-23T05:58:53.212Z,0.4
2022-12-23T06:00:01.911Z,0.4
2022-12-23T06:01:11.609Z,0.4
2022-12-23T06:02:19.387Z,0.2
2022-12-23T06:03:29.166Z,0.3
2022-12-23T06:04:38.727Z,0.3
2022-12-23T06:05:47.393Z,0.3
2022-12-23T06:06:57.111Z,0.3
2022-12-23T06:08:06.775Z,0.4
2022-12-23T06:09:15.462Z,0.5
2022-12-23T06:10:25.119Z,0.4
2022-12-23T06:11:34.794Z,0.4
2022-12-23T06:12:43.448Z,0.5
2022-12-23T06:13:53.168Z,0.4
2022-12-23T06:15:00.888Z,0.3
2022-12-23T06:16:10.692Z,0.3
2022-12-23T06:17:19.368Z,0.4
2022-12-23T06:18:28.047Z,0.6
2022-12-23T06:19:37.724Z,0.4
2022-12-23T06:20:45.384Z,0.4
2022-12-23T06:21:54.073Z,0.4
2022-12-23T06:23:03.773Z,0.4
2022-12-23T06:24:12.437Z,0.3
2022-12-23T06:25:21.118Z,0.4
2022-12-23T06:26:30.786Z,0.3
2022-12-23T06:27:38.437Z,0.3
2022-12-23T06:28:47.097Z,0.2
2022-12-23T06:29:55.819Z,0.3
2022-12-23T06:31:05.487Z,0.2
2022-12-23T06:32:15.229Z,0.2
2022-12-23T06:33:23.852Z,0.2
2022-12-23T06:34:33.491Z,0.4
2022-12-23T06:35:43.208Z,0.2
2022-12-23T06:36:52.896Z,0.4
2022-12-23T06:38:03.327Z,0.5
2022-12-23T06:39:11.237Z,0.3
2022-12-23T06:40:20.904Z,0.3
2022-12-23T06:41:30.658Z,0.4
2022-12-23T06:42:40.325Z,0.3
2022-12-23T06:43:54.218Z,0.3
2022-12-23T06:45:00.611Z,0.4
2022-12-23T06:46:10.346Z,0.3
2022-12-23T06:47:18.958Z,0.4
2022-12-23T06:48:27.657Z,0.4
2022-12-23T06:49:37.292Z,0.3
2022-12-23T06:50:45.944Z,0.2
2022-12-23T06:51:54.606Z,0.5
2022-12-23T06:53:04.274Z,0.3
2022-12-23T06:54:13.999Z,0.5
2022-12-23T06:55:23.661Z,0.5
2022-12-23T06:56:33.413Z,0.4
2022-12-23T06:57:42.090Z,0.4
2022-12-23T06:58:51.821Z,0.5
2022-12-23T07:00:00.506Z,0.5
2022-12-23T07:01:10.437Z,0.5
2022-12-23T07:02:19.973Z,0.4
2022-12-23T07:03:28.501Z,0.3
2022-12-23T07:04:38.272Z,0.3
2022-12-23T07:05:47.901Z,0.2
2022-12-23T07:06:56.579Z,0.3
2022-12-23T07:08:06.298Z,0.3
2022-12-23T07:09:14.967Z,0.4
2022-12-23T07:10:23.653Z,0.5
2022-12-23T07:11:33.299Z,0.5
2022-12-23T07:12:47.509Z,0.4
2022-12-23T07:13:53.620Z,0.6
2022-12-23T07:15:01.286Z,0.6
2022-12-23T07:16:09.054Z,0.6
2022-12-23T07:17:18.635Z,0.8
2022-12-23T07:18:27.263Z,0.5
2022-12-23T07:19:35.938Z,0.3
2022-12-23T07:20:45.639Z,0.3
2022-12-23T07:21:55.346Z,0.2
2022-12-23T07:23:04.999Z,0.2
2022-12-23T07:24:13.671Z,0.1
2022-12-23T07:25:21.411Z,0.2
2022-12-23T07:26:31.095Z,0.2
2022-12-23T07:27:39.815Z,0.2
2022-12-23T07:28:49.486Z,0.3
2022-12-23T07:29:59.187Z,0.2
2022-12-23T07:31:06.881Z,0.3
2022-12-23T07:32:16.486Z,0.2
2022-12-23T07:33:26.173Z,0.2
2022-12-23T07:34:35.834Z,0.3
2022-12-23T07:35:45.491Z,0.3
2022-12-23T07:36:55.188Z,0.3
2022-12-23T07:38:03.839Z,0.2
2022-12-23T07:39:13.519Z,0.3
2022-12-23T07:40:21.173Z,0.2
2022-12-23T07:41:30.840Z,0.3
2022-12-23T07:42:45.939Z,0.3
2022-12-23T07:43:50.163Z,0.4
2022-12-23T07:44:59.895Z,0.3
2022-12-23T07:46:09.690Z,0.3
2022-12-23T07:47:18.221Z,0.3
2022-12-23T07:48:27.903Z,0.4
2022-12-23T07:49:35.589Z,0.3
2022-12-23T07:50:44.262Z,0.3
2022-12-23T07:51:52.938Z,0.2
2022-12-23T07:53:01.634Z,0.2
2022-12-23T07:54:11.284Z,0.3
2022-12-23T07:55:19.996Z,0.3
2022-12-23T07:56:29.680Z,0.3
2022-12-23T07:57:39.386Z,0.3
2022-12-23T07:58:48.065Z,0.2
2022-12-23T07:59:57.995Z,0.3
2022-12-23T08:01:05.776Z,0.3
2022-12-23T08:02:13.509Z,0.3
2022-12-23T08:03:23.240Z,0.3
2022-12-23T08:04:32.928Z,0.3
2022-12-23T08:05:41.435Z,0.3
2022-12-23T08:06:51.102Z,0.4
2022-12-23T08:07:59.779Z,0.3
2022-12-23T08:09:08.467Z,0.5
2022-12-23T08:10:18.134Z,0.3
2022-12-23T08:11:25.804Z,0.5
2022-12-23T08:12:35.478Z,0.4
2022-12-23T08:13:44.148Z,0.4
2022-12-23T08:14:52.801Z,0.3
2022-12-23T08:16:02.576Z,0.4
2022-12-23T08:17:12.344Z,0.4
2022-12-23T08:18:21.949Z,0.3
2022-12-23T08:19:31.614Z,0.3
2022-12-23T08:20:40.274Z,0.3
2022-12-23T08:21:49.941Z,0.3
2022-12-23T08:22:58.610Z,0.4
2022-12-23T08:24:07.260Z,0.2
2022-12-23T08:25:16.982Z,0.3
2022-12-23T08:26:25.638Z,0.4
2022-12-23T08:27:35.321Z,0.2
2022-12-23T08:28:43.970Z,0.3
2022-12-23T08:29:52.617Z,0.3
2022-12-23T08:31:02.356Z,0.2
2022-12-23T08:32:11.999Z,0.2
2022-12-23T08:33:20.668Z,0.2
2022-12-23T08:34:30.312Z,0.3
2022-12-23T08:35:39.998Z,0.2
2022-12-23T08:36:49.712Z,0.3
2022-12-23T08:37:58.357Z,0.1
2022-12-23T08:39:08.064Z,0.2
2022-12-23T08:40:17.743Z,0.3
2022-12-23T08:41:26.426Z,0.4
2022-12-23T08:42:36.102Z,0.4
2022-12-23T08:43:44.730Z,0.2
2022-12-23T08:44:54.403Z,0.3
2022-12-23T08:46:04.224Z,0.3
2022-12-23T08:47:12.795Z,0.2
2022-12-23T08:48:23.499Z,0.2
2022-12-23T08:49:32.142Z,0.2
2022-12-23T08:50:39.796Z,0.2
2022-12-23T08:51:49.468Z,0.3
2022-12-23T08:52:59.154Z,0.3
2022-12-23T08:54:07.884Z,0.2
2022-12-23T08:55:17.542Z,0.3
2022-12-23T08:56:27.234Z,0.3
2022-12-23T08:57:36.903Z,0.3
2022-12-23T08:58:45.592Z,0.4
2022-12-23T08:59:53.215Z,0.6
2022-12-23T09:01:02.915Z,0.6
2022-12-23T09:02:12.710Z,0.4
2022-12-23T09:03:21.301Z,0.3
2022-12-23T09:04:30.905Z,0.4
2022-12-23T09:05:39.563Z,0.2
2022-12-23T09:06:49.281Z,0.3
2022-12-23T09:07:57.934Z,0.2
2022-12-23T09:09:06.594Z,0.2
2022-12-23T09:10:16.299Z,0.2
2022-12-23T09:11:24.984Z,0.3
2022-12-23T09:12:33.643Z,0.2
2022-12-23T09:13:43.373Z,0.1
2022-12-23T09:14:52.948Z,0.3
2022-12-23T09:16:02.730Z,0.1
2022-12-23T09:17:11.361Z,0.2
2022-12-23T09:18:20.037Z,0.2
2022-12-23T09:19:29.698Z,0.1
2022-12-23T09:20:38.350Z,0.1
2022-12-23T09:21:48.056Z,0.2
2022-12-23T09:22:57.737Z,0.2
2022-12-23T09:24:06.528Z,0.2
2022-12-23T09:25:16.192Z,0.2
2022-12-23T09:26:24.973Z,0.2
2022-12-23T09:27:34.637Z,0.4
2022-12-23T09:28:44.328Z,0.3
2022-12-23T09:29:53.001Z,0.2
2022-12-23T09:31:01.666Z,0.2
2022-12-23T09:32:11.288Z,0.3
2022-12-23T09:33:20.974Z,0.2
2022-12-23T09:34:30.645Z,0.3
2022-12-23T09:35:39.297Z,0.2
2022-12-23T09:36:53.491Z,0.2
2022-12-23T09:37:59.583Z,0.3
2022-12-23T09:39:07.251Z,0.2
2022-12-23T09:40:16.938Z,0.3
2022-12-23T09:41:26.626Z,0.2
2022-12-23T09:42:35.292Z,0.3
2022-12-23T09:43:44.996Z,0.2
2022-12-23T09:44:53.645Z,0.3
2022-12-23T09:46:03.461Z,0.2
2022-12-23T09:47:12.033Z,0.2
2022-12-23T09:48:20.718Z,0.2
2022-12-23T09:49:29.381Z,0.3
2022-12-23T09:50:39.096Z,0.2
2022-12-23T09:51:48.816Z,0.2
2022-12-23T09:52:58.463Z,0.2
2022-12-23T09:54:09.682Z,0.3
2022-12-23T09:55:15.827Z,0.2
2022-12-23T09:56:25.496Z,0.3
2022-12-23T09:57:35.210Z,0.2
2022-12-23T09:58:44.885Z,0.3
2022-12-23T09:59:54.532Z,0.3
2022-12-23T10:01:02.204Z,0.3
2022-12-23T10:02:12.031Z,0.2
2022-12-23T10:03:21.853Z,0.2
2022-12-23T10:04:30.357Z,0.2
2022-12-23T10:05:39.919Z,0.2
2022-12-23T10:06:47.579Z,0.3
2022-12-23T10:07:56.290Z,0.2
2022-12-23T10:09:06.006Z,0.3
2022-12-23T10:10:15.674Z,0.2
2022-12-23T10:11:25.373Z,0.3
2022-12-23T10:12:39.641Z,0.2
2022-12-23T10:13:44.662Z,0.2
2022-12-23T10:14:54.333Z,0.2
2022-12-23T10:16:03.074Z,0.1
2022-12-23T10:17:13.697Z,0.2
2022-12-23T10:18:23.383Z,0.2
2022-12-23T10:19:30.987Z,0.2
2022-12-23T10:20:40.674Z,0.2
2022-12-23T10:21:50.308Z,0.2
2022-12-23T10:22:58.989Z,0.3
2022-12-23T10:24:08.697Z,0.3
2022-12-23T10:25:16.362Z,0.3
2022-12-23T10:26:25.053Z,0.3
2022-12-23T10:27:33.708Z,0.3
2022-12-23T10:28:42.358Z,0.4
2022-12-23T10:29:52.064Z,0.4
2022-12-23T10:32:11.384Z,0.2
2022-12-23T10:33:21.044Z,0.2
2022-12-23T10:34:32.222Z,0.1
2022-12-23T10:35:38.317Z,0.2
2022-12-23T10:36:48.197Z,0.3
2022-12-23T10:37:55.674Z,0.2
2022-12-23T10:39:05.358Z,0.2
2022-12-23T10:40:15.037Z,0.2
2022-12-23T10:41:24.703Z,0.3
2022-12-23T10:42:34.365Z,0.2
2022-12-23T10:43:44.071Z,0.2
2022-12-23T10:44:53.745Z,0.2
2022-12-23T10:46:02.395Z,0.3
2022-12-23T10:47:11.179Z,0.2
2022-12-23T10:48:20.750Z,0.2
2022-12-23T10:49:30.474Z,0.2
2022-12-23T10:50:40.099Z,0.2
2022-12-23T10:51:49.792Z,0.1
2022-12-23T10:52:58.460Z,0.4
2022-12-23T10:54:08.236Z,0.1
2022-12-23T10:55:15.940Z,0.2
2022-12-23T10:56:25.706Z,0.2
2022-12-23T10:57:35.354Z,0.2
2022-12-23T10:58:43.994Z,0.2
2022-12-23T10:59:53.686Z,0.3
2022-12-23T11:01:05.744Z,0.4
2022-12-23T11:02:12.207Z,0.4
2022-12-23T11:03:21.816Z,0.3
2022-12-23T11:04:30.336Z,0.3
2022-12-23T11:05:40.125Z,0.2
2022-12-23T11:07:04.978Z,0.3
2022-12-23T11:08:00.502Z,0.3
2022-12-23T11:09:09.187Z,0.3
2022-12-23T11:10:17.878Z,0.3
2022-12-23T11:11:27.530Z,0.3
2022-12-23T11:12:40.594Z,0.5
2022-12-23T11:13:47.977Z,0.2
2022-12-23T11:14:56.638Z,0.3
2022-12-23T11:16:06.353Z,0.3
2022-12-23T11:17:14.933Z,0.2
2022-12-23T11:18:24.609Z,0.2
2022-12-23T11:19:34.308Z,0.2
2022-12-23T11:20:43.010Z,0.2
2022-12-23T11:21:52.643Z,0.2
2022-12-23T11:23:00.302Z,0.2
2022-12-23T11:24:08.966Z,0.2
2022-12-23T11:25:18.639Z,0.2
2022-12-23T11:26:26.266Z,0.2
2022-12-23T11:27:36.010Z,0.2
2022-12-23T11:28:45.666Z,0.1
2022-12-23T11:29:53.345Z,0.2
2022-12-23T11:31:03.003Z,0.2
2022-12-23T11:32:11.663Z,0.4
2022-12-23T11:33:21.388Z,0.3
2022-12-23T11:34:31.047Z,0.2
2022-12-23T11:35:39.784Z,0.2
2022-12-23T11:36:52.946Z,0.2
2022-12-23T11:37:59.048Z,0.2
2022-12-23T11:39:08.717Z,0.3
2022-12-23T11:40:18.403Z,0.2
2022-12-23T11:41:28.088Z,0.3
2022-12-23T11:42:37.750Z,0.2
2022-12-23T11:43:47.404Z,0.2
2022-12-23T11:44:57.088Z,0.2
2022-12-23T11:46:06.853Z,0.3
2022-12-23T11:47:16.418Z,0.2
2022-12-23T11:48:24.087Z,0.3
2022-12-23T11:49:33.777Z,0.4
2022-12-23T11:50:41.423Z,0.4
2022-12-23T11:51:51.156Z,0.5
2022-12-23T11:53:00.802Z,0.3
2022-12-23T11:54:08.420Z,0.3
2022-12-23T11:55:18.088Z,0.2
2022-12-23T11:56:26.780Z,0.2
2022-12-23T11:57:34.399Z,0.3
2022-12-23T11:58:44.083Z,0.3
2022-12-23T11:59:51.737Z,0.2
2022-12-23T12:01:01.413Z,0.1
2022-12-23T12:02:10.175Z,0.2
2022-12-23T12:03:17.772Z,0.3
2022-12-23T12:04:27.457Z,0.1
2022-12-23T12:05:37.124Z,0.2
2022-12-23T12:06:51.224Z,0.1
2022-12-23T12:07:57.445Z,0.2
2022-12-23T12:09:05.057Z,0.2
2022-12-23T12:10:14.744Z,0.2
2022-12-23T12:11:22.403Z,0.3
2022-12-23T12:12:30.068Z,0.1
2022-12-23T12:13:39.768Z,0.1
2022-12-23T12:14:48.417Z,0.2
2022-12-23T12:15:57.083Z,0.1
2022-12-23T12:17:06.835Z,0.2
2022-12-23T12:18:15.414Z,0.2
2022-12-23T12:19:25.135Z,0.1
2022-12-23T12:20:34.779Z,0.2
2022-12-23T12:21:43.451Z,0.2
2022-12-23T12:22:53.201Z,0.2
2022-12-23T12:24:17.557Z,0.3
2022-12-23T12:25:12.480Z,0.2
2022-12-23T12:26:22.134Z,0.2
2022-12-23T12:27:31.845Z,0.3
2022-12-23T12:28:41.501Z,0.3
2022-12-23T12:29:51.179Z,0.4
2022-12-23T12:30:59.887Z,0.2
2022-12-23T12:32:09.504Z,0.3
2022-12-23T12:33:18.215Z,0.2
2022-12-23T12:34:27.861Z,0.3
2022-12-23T12:35:36.519Z,0.2
2022-12-23T12:36:43.175Z,0.2
2022-12-23T12:37:52.834Z,0.2
2022-12-23T12:39:01.516Z,0.2
2022-12-23T12:40:11.206Z,0.2
2022-12-23T12:41:20.863Z,0.2
2022-12-23T12:42:28.499Z,0.2
2022-12-23T12:43:38.164Z,0.2
2022-12-23T12:44:46.828Z,0.2
2022-12-23T12:45:55.572Z,0.2
2022-12-23T12:47:21.806Z,0.2
2022-12-23T12:48:18.418Z,0.2
2022-12-23T12:49:25.471Z,0.2
2022-12-23T12:50:35.166Z,0.2
2022-12-23T12:51:43.830Z,0.2
2022-12-23T12:52:53.484Z,0.1
2022-12-23T12:54:05.782Z,0.2
2022-12-23T12:55:13.797Z,0.4
2022-12-23T12:56:23.512Z,0.4
2022-12-23T12:57:33.195Z,0.6
2022-12-23T12:58:41.847Z,0.5
2022-12-23T12:59:51.518Z,0.2
2022-12-23T13:00:59.226Z,0.2
2022-12-23T13:02:08.911Z,0.3
2022-12-23T13:03:18.541Z,0.3
2022-12-23T13:04:26.198Z,0.4
2022-12-23T13:05:35.845Z,0.5
2022-12-23T13:06:45.513Z,0.6
2022-12-23T13:07:54.227Z,0.6
2022-12-23T13:09:03.877Z,0.7
2022-12-23T13:10:12.576Z,0.6
2022-12-23T13:11:28.093Z,0.4
2022-12-23T13:12:32.890Z,0.3
2022-12-23T13:13:41.567Z,0.3
2022-12-23T13:14:51.232Z,0.3
2022-12-23T13:15:59.884Z,0.3
2022-12-23T13:17:09.689Z,0.3
2022-12-23T13:18:19.338Z,0.2
2022-12-23T13:19:29.019Z,0.5
2022-12-23T13:20:38.680Z,0.3
2022-12-23T13:21:47.349Z,0.4
2022-12-23T13:23:06.289Z,0.4
2022-12-23T13:24:07.661Z,0.4
2022-12-23T13:25:16.332Z,0.5
2022-12-23T13:26:25.107Z,0.3
2022-12-23T13:27:34.702Z,0.3
2022-12-23T13:28:44.428Z,0.4
2022-12-23T13:29:57.915Z,0.3
2022-12-23T13:31:04.169Z,0.3
2022-12-23T13:32:12.769Z,0.4
2022-12-23T13:33:22.445Z,0.3
2022-12-23T13:34:32.102Z,0.6
2022-12-23T13:35:41.770Z,0.4
2022-12-23T13:36:51.487Z,0.4
2022-12-23T13:38:00.114Z,0.3
2022-12-23T13:39:09.776Z,0.4
2022-12-23T13:40:18.437Z,0.4
2022-12-23T13:41:27.120Z,0.4
2022-12-23T13:42:35.796Z,0.3
2022-12-23T13:43:44.473Z,0.3
2022-12-23T13:44:54.088Z,0.3
2022-12-23T13:46:03.834Z,0.3
2022-12-23T13:47:11.479Z,0.3
2022-12-23T13:48:21.161Z,0.3
2022-12-23T13:49:29.817Z,0.4
2022-12-23T13:50:38.471Z,0.3
2022-12-23T13:51:48.127Z,0.3
2022-12-23T13:52:55.783Z,0.3
2022-12-23T13:54:05.511Z,0.3
2022-12-23T13:55:15.115Z,0.4
2022-12-23T13:56:23.800Z,0.4
2022-12-23T13:57:33.460Z,0.5
2022-12-23T13:58:43.091Z,0.3
2022-12-23T13:59:51.805Z,0.3
2022-12-23T14:01:01.564Z,0.3
2022-12-23T14:02:10.303Z,0.4
2022-12-23T14:03:19.834Z,0.3
2022-12-23T14:04:29.491Z,0.3
2022-12-23T14:05:38.207Z,0.6
2022-12-23T14:06:47.876Z,0.6
2022-12-23T14:07:57.529Z,0.5
2022-12-23T14:09:06.223Z,0.5
2022-12-23T14:10:15.902Z,0.5
2022-12-23T14:11:23.681Z,0.6
2022-12-23T14:12:33.327Z,0.7
2022-12-23T14:13:43.311Z,0.5
2022-12-23T14:14:51.926Z,0.6
2022-12-23T14:16:01.673Z,0.8
2022-12-23T14:17:11.325Z,0.7
2022-12-23T14:18:19.976Z,0.6
2022-12-23T14:19:29.642Z,0.4
2022-12-23T14:20:37.318Z,0.6
2022-12-23T14:21:46.069Z,0.5
2022-12-23T14:22:55.742Z,0.6
2022-12-23T14:24:05.394Z,0.5
2022-12-23T14:25:15.069Z,0.4
2022-12-23T14:26:24.750Z,0.5
2022-12-23T14:27:32.626Z,0.4
2022-12-23T14:28:42.308Z,0.4
2022-12-23T14:29:50.100Z,0.4
2022-12-23T14:30:59.754Z,0.6
2022-12-23T14:32:09.378Z,0.4
2022-12-23T14:33:19.098Z,0.4
2022-12-23T14:34:28.754Z,0.4
2022-12-23T14:35:42.323Z,0.3
2022-12-23T14:36:49.085Z,0.4
2022-12-23T14:37:57.762Z,0.2
2022-12-23T14:39:06.510Z,0.4
2022-12-23T14:40:16.346Z,0.3
2022-12-23T14:41:24.208Z,0.6
2022-12-23T14:42:33.893Z,0.5
2022-12-23T14:43:43.548Z,0.7
2022-12-23T14:44:52.571Z,0.5
2022-12-23T14:46:01.979Z,0.5
2022-12-23T14:47:10.557Z,0.7
2022-12-23T14:48:17.191Z,0.7
2022-12-23T14:49:38.684Z,0.8
2022-12-23T14:50:36.556Z,0.6
2022-12-23T14:51:46.275Z,0.7
2022-12-23T14:52:55.950Z,0.7
2022-12-23T14:54:05.619Z,0.6
2022-12-23T14:55:30.046Z,0.8
2022-12-23T14:56:24.994Z,0.6
2022-12-23T14:57:34.702Z,0.7
2022-12-23T14:58:44.444Z,0.8
2022-12-23T14:59:52.259Z,0.7
2022-12-23T15:01:00.941Z,0.7
2022-12-23T15:02:10.644Z,0.6
2022-12-23T15:03:20.542Z,0.6
2022-12-23T15:04:29.948Z,0.8
2022-12-23T15:05:39.609Z,0.4
2022-12-23T15:06:48.317Z,0.5
2022-12-23T15:07:58.085Z,0.5
2022-12-23T15:09:06.820Z,0.4
2022-12-23T15:10:15.636Z,0.5
2022-12-23T15:11:25.304Z,0.3
2022-12-23T15:12:34.980Z,0.6
2022-12-23T15:13:44.854Z,0.4
2022-12-23T15:14:55.086Z,0.5
2022-12-23T15:16:03.833Z,0.3
2022-12-23T15:17:13.365Z,0.6
2022-12-23T15:18:22.069Z,0.5
2022-12-23T15:19:31.746Z,0.5
2022-12-23T15:20:41.431Z,0.4
2022-12-23T15:21:58.294Z,0.4
2022-12-23T15:23:01.813Z,0.6
2022-12-23T15:24:10.444Z,0.4
2022-12-23T15:25:19.337Z,0.6
2022-12-23T15:26:29.062Z,0.5
2022-12-23T15:27:36.717Z,0.5
2022-12-23T15:28:46.375Z,0.2
2022-12-23T15:29:56.137Z,0.4
2022-12-23T15:31:04.509Z,0.4
2022-12-23T15:32:14.188Z,0.2
2022-12-23T15:34:01.281Z,0.6
2022-12-23T15:34:33.728Z,0.6
2022-12-23T15:35:43.400Z,0.3
2022-12-23T15:36:53.119Z,0.3
2022-12-23T15:38:03.019Z,0.2
2022-12-23T15:39:12.703Z,0.2
2022-12-23T15:40:21.385Z,0.3
2022-12-23T15:41:31.054Z,0.7
2022-12-23T15:42:39.771Z,0.4
2022-12-23T15:43:48.477Z,0.5
2022-12-23T15:44:58.144Z,0.5
2022-12-23T15:46:07.903Z,0.6
2022-12-23T15:47:17.655Z,0.5
2022-12-23T15:48:28.405Z,0.5
2022-12-23T15:49:38.176Z,0.4
2022-12-23T15:50:47.893Z,0.4
2022-12-23T15:52:07.749Z,0.5
2022-12-23T15:53:06.200Z,0.5
2022-12-23T15:54:16.881Z,0.6
2022-12-23T15:55:26.589Z,0.6